Time,TemperatureF,DewpointF,PressureIn,WindDirection,WindDirectionDegrees,WindSpeedMPH,WindSpeedGustMPH,Humidity,HourlyPrecipIn,Conditions,Clouds,dailyrainin,SoftwareType,DateUTC
2013-07-03 00:03:00,63.0,53.8,30.08,NW,315,0.0,0.0,72,0.00,,,0.00,WUHU216HW,2013-07-03 05:03:00,
2013-07-03 00:07:00,62.6,53.5,30.08,NW,315,0.0,0.0,72,0.00,,,0.00,WUHU216HW,2013-07-03 05:07:00,
2013-07-03 00:12:00,62.3,53.5,30.08,NW,315,0.0,0.0,73,0.00,,,0.00,WUHU216HW,2013-07-03 05:12:00,
2013-07-03 00:17:00,62.5,53.6,30.08,NW,315,0.0,0.0,73,0.00,,,0.00,WUHU216HW,2013-07-03 05:17:00,
2013-07-03 00:19:00,62.3,53.5,30.08,NW,315,0.0,0.0,73,0.00,,,0.00,WUHU216HW,2013-07-03 05:19:00,
2013-07-03 00:24:00,62.3,53.5,30.07,NW,315,0.0,0.0,73,0.00,,,0.00,WUHU216HW,2013-07-03 05:24:00,
2013-07-03 00:29:00,61.9,53.2,30.07,NW,315,0.0,0.0,73,0.00,,,0.00,WUHU216HW,2013-07-03 05:29:00,
2013-07-03 00:34:00,61.6,52.8,30.07,NW,315,0.0,0.0,73,0.00,,,0.00,WUHU216HW,2013-07-03 05:34:00,
2013-07-03 00:39:00,61.2,52.9,30.07,NW,315,0.0,0.0,74,0.00,,,0.00,WUHU216HW,2013-07-03 05:39:00,
2013-07-03 00:44:00,60.8,52.6,30.07,NW,315,0.0,0.0,74,0.00,,,0.00,WUHU216HW,2013-07-03 05:44:00,
2013-07-03 00:49:00,60.5,52.6,30.07,NW,315,0.0,0.0,75,0.00,,,0.00,WUHU216HW,2013-07-03 05:49:00,
2013-07-03 00:54:00,60.3,52.7,30.07,NW,315,0.0,0.0,76,0.00,,,0.00,WUHU216HW,2013-07-03 05:54:00,
2013-07-03 00:58:00,60.5,52.9,30.07,NW,315,0.0,0.0,76,0.00,,,0.00,WUHU216HW,2013-07-03 05:58:00,
2013-07-03 01:02:00,60.7,53.1,30.07,NW,315,0.0,0.0,76,0.00,,,0.00,WUHU216HW,2013-07-03 06:02:00,
2013-07-03 01:07:00,60.5,52.9,30.07,NW,315,0.0,0.0,76,0.00,,,0.00,WUHU216HW,2013-07-03 06:07:00,
2013-07-03 01:12:00,60.3,52.7,30.07,NW,315,0.0,0.0,76,0.00,,,0.00,WUHU216HW,2013-07-03 06:12:00,
2013-07-03 01:13:00,60.1,52.6,30.07,NW,315,0.0,0.0,76,0.00,,,0.00,WUHU216HW,2013-07-03 06:13:00,
2013-07-03 01:16:00,60.1,52.6,30.07,NW,315,0.0,0.0,76,0.00,,,0.00,WUHU216HW,2013-07-03 06:16:00,
2013-07-03 01:17:00,59.9,52.4,30.07,NW,315,0.0,0.0,76,0.00,,,0.00,WUHU216HW,2013-07-03 06:17:00,
2013-07-03 01:22:00,59.6,52.0,30.07,NW,315,0.0,0.0,76,0.00,,,0.00,WUHU216HW,2013-07-03 06:22:00,
2013-07-03 01:24:00,59.6,52.0,30.07,NW,315,0.0,0.0,76,0.00,,,0.00,WUHU216HW,2013-07-03 06:24:00,
2013-07-03 01:26:00,59.6,52.0,30.07,NW,315,0.0,0.0,76,0.00,,,0.00,WUHU216HW,2013-07-03 06:26:00,
2013-07-03 01:31:00,59.6,52.4,30.07,NW,315,0.0,0.0,77,0.00,,,0.00,WUHU216HW,2013-07-03 06:31:00,
2013-07-03 01:32:00,59.8,52.6,30.07,NW,315,0.0,0.0,77,0.00,,,0.00,WUHU216HW,2013-07-03 06:32:00,
2013-07-03 01:37:00,59.6,52.4,30.07,NW,315,0.0,0.0,77,0.00,,,0.00,WUHU216HW,2013-07-03 06:37:00,
2013-07-03 01:42:00,59.6,52.4,30.07,NW,315,0.0,0.0,77,0.00,,,0.00,WUHU216HW,2013-07-03 06:42:00,
2013-07-03 01:43:00,59.6,52.4,30.07,NW,315,0.0,0.0,77,0.00,,,0.00,WUHU216HW,2013-07-03 06:43:00,
2013-07-03 01:48:00,59.8,52.9,30.07,SE,135,0.0,0.9,78,0.00,,,0.00,WUHU216HW,2013-07-03 06:48:00,
2013-07-03 01:53:00,59.6,52.7,30.07,SSW,203,0.0,0.9,78,0.00,,,0.00,WUHU216HW,2013-07-03 06:53:00,
2013-07-03 01:55:00,59.4,52.2,30.06,SSW,203,0.0,0.4,77,0.00,,,0.00,WUHU216HW,2013-07-03 06:55:00,
2013-07-03 02:01:00,59.0,51.8,30.07,SSW,203,0.0,0.4,77,0.00,,,0.00,WUHU216HW,2013-07-03 07:01:00,
2013-07-03 02:06:00,58.7,51.8,30.07,WSW,248,0.0,0.0,78,0.00,,,0.00,WUHU216HW,2013-07-03 07:06:00,
2013-07-03 02:11:00,58.7,51.8,30.06,WSW,248,0.0,0.0,78,0.00,,,0.00,WUHU216HW,2013-07-03 07:11:00,
2013-07-03 02:16:00,58.3,51.8,30.06,WSW,248,0.0,0.0,79,0.00,,,0.00,WUHU216HW,2013-07-03 07:16:00,
2013-07-03 02:17:00,58.3,51.8,30.06,WSW,248,0.0,0.0,79,0.00,,,0.00,WUHU216HW,2013-07-03 07:17:00,
2013-07-03 02:22:00,58.0,51.5,30.06,WSW,248,0.0,0.0,79,0.00,,,0.00,WUHU216HW,2013-07-03 07:22:00,
2013-07-03 02:28:00,58.0,51.5,30.06,WSW,248,0.0,0.0,79,0.00,,,0.00,WUHU216HW,2013-07-03 07:28:00,
2013-07-03 02:33:00,58.0,51.8,30.06,WSW,248,0.0,0.0,80,0.00,,,0.00,WUHU216HW,2013-07-03 07:33:00,
2013-07-03 02:38:00,58.0,51.8,30.06,WSW,248,0.0,0.0,80,0.00,,,0.00,WUHU216HW,2013-07-03 07:38:00,
2013-07-03 02:43:00,58.0,52.2,30.06,WSW,248,0.0,0.0,81,0.00,,,0.00,WUHU216HW,2013-07-03 07:43:00,
2013-07-03 02:48:00,58.0,52.2,30.06,WSW,248,0.0,0.0,81,0.00,,,0.00,WUHU216HW,2013-07-03 07:48:00,
2013-07-03 02:50:00,57.6,51.9,30.06,WSW,248,0.0,0.0,81,0.00,,,0.00,WUHU216HW,2013-07-03 07:50:00,
2013-07-03 02:55:00,57.4,51.7,30.06,WSW,248,0.0,0.0,81,0.00,,,0.00,WUHU216HW,2013-07-03 07:55:00,
2013-07-03 03:01:00,57.2,51.5,30.06,WSW,248,0.0,0.0,81,0.00,,,0.00,WUHU216HW,2013-07-03 08:01:00,
2013-07-03 03:06:00,56.9,51.4,30.06,WSW,248,0.0,0.2,82,0.00,,,0.00,WUHU216HW,2013-07-03 08:06:00,
2013-07-03 03:09:00,56.9,51.4,30.06,WSW,248,0.0,0.2,82,0.00,,,0.00,WUHU216HW,2013-07-03 08:09:00,
2013-07-03 03:14:00,56.9,51.8,30.06,WSW,248,0.0,0.0,83,0.00,,,0.00,WUHU216HW,2013-07-03 08:14:00,
2013-07-03 03:18:00,56.9,51.8,30.06,WSW,248,0.0,0.0,83,0.00,,,0.00,WUHU216HW,2013-07-03 08:18:00,
2013-07-03 03:23:00,56.7,51.6,30.06,WSW,248,0.0,0.0,83,0.00,,,0.00,WUHU216HW,2013-07-03 08:23:00,
2013-07-03 03:28:00,56.7,51.6,30.06,SSE,158,0.2,0.4,83,0.00,,,0.00,WUHU216HW,2013-07-03 08:28:00,
2013-07-03 03:33:00,56.5,51.4,30.06,SSE,158,0.0,0.4,83,0.00,,,0.00,WUHU216HW,2013-07-03 08:33:00,
2013-07-03 03:38:00,56.5,51.4,30.06,SSE,158,0.0,0.2,83,0.00,,,0.00,WUHU216HW,2013-07-03 08:38:00,
2013-07-03 03:39:00,56.5,51.4,30.06,SSE,158,0.0,0.0,83,0.00,,,0.00,WUHU216HW,2013-07-03 08:39:00,
2013-07-03 03:44:00,56.5,51.7,30.06,SSE,158,0.0,0.2,84,0.00,,,0.00,WUHU216HW,2013-07-03 08:44:00,
2013-07-03 03:45:00,56.5,51.7,30.06,SSE,158,0.0,0.2,84,0.00,,,0.00,WUHU216HW,2013-07-03 08:45:00,
2013-07-03 03:50:00,56.3,51.2,30.05,SSE,158,0.0,0.2,83,0.00,,,0.00,WUHU216HW,2013-07-03 08:50:00,
2013-07-03 03:55:00,56.2,51.0,30.06,SSE,158,0.0,0.0,83,0.00,,,0.00,WUHU216HW,2013-07-03 08:55:00,
2013-07-03 04:00:00,56.0,50.9,30.05,SSE,158,0.0,0.0,83,0.00,,,0.00,WUHU216HW,2013-07-03 09:00:00,
2013-07-03 04:05:00,55.8,50.7,30.06,SSE,158,0.0,0.0,83,0.00,,,0.00,WUHU216HW,2013-07-03 09:05:00,
2013-07-03 04:11:00,55.8,50.7,30.06,SSE,158,0.0,0.0,83,0.00,,,0.00,WUHU216HW,2013-07-03 09:11:00,
2013-07-03 04:16:00,56.0,51.1,30.06,SSE,158,0.0,0.0,84,0.00,,,0.00,WUHU216HW,2013-07-03 09:16:00,
2013-07-03 04:21:00,56.0,51.1,30.06,SSE,158,0.0,0.0,84,0.00,,,0.00,WUHU216HW,2013-07-03 09:21:00,
2013-07-03 04:26:00,55.8,50.9,30.05,SSE,158,0.0,0.0,84,0.00,,,0.00,WUHU216HW,2013-07-03 09:26:00,
2013-07-03 04:31:00,56.0,51.1,30.06,SSE,158,0.0,0.0,84,0.00,,,0.00,WUHU216HW,2013-07-03 09:31:00,
2013-07-03 04:36:00,56.0,51.1,30.06,SSE,158,0.0,0.0,84,0.00,,,0.00,WUHU216HW,2013-07-03 09:36:00,
2013-07-03 04:41:00,55.8,50.9,30.06,SE,135,0.0,0.7,84,0.00,,,0.00,WUHU216HW,2013-07-03 09:41:00,
2013-07-03 04:46:00,55.8,51.3,30.05,NE,45,0.0,0.7,85,0.00,,,0.00,WUHU216HW,2013-07-03 09:46:00,
2013-07-03 04:49:00,55.8,51.3,30.05,NE,45,0.0,0.2,85,0.00,,,0.00,WUHU216HW,2013-07-03 09:49:00,
2013-07-03 04:50:00,55.8,51.3,30.05,NE,45,0.0,0.2,85,0.00,,,0.00,WUHU216HW,2013-07-03 09:50:00,
2013-07-03 04:55:00,56.0,51.5,30.05,NE,45,0.0,0.0,85,0.00,,,0.00,WUHU216HW,2013-07-03 09:55:00,
2013-07-03 05:00:00,56.2,52.0,30.05,NNE,23,0.0,0.0,86,0.00,,,0.00,WUHU216HW,2013-07-03 10:00:00,
2013-07-03 05:04:00,56.2,52.0,30.05,NNE,23,0.0,0.0,86,0.00,,,0.00,WUHU216HW,2013-07-03 10:04:00,
2013-07-03 05:05:00,56.2,51.7,30.05,NNE,23,0.0,0.0,85,0.00,,,0.00,WUHU216HW,2013-07-03 10:05:00,
2013-07-03 05:11:00,56.2,52.0,30.05,NNE,23,0.0,0.0,86,0.00,,,0.00,WUHU216HW,2013-07-03 10:11:00,
2013-07-03 05:16:00,56.2,52.0,30.05,NNE,23,0.0,0.0,86,0.00,,,0.00,WUHU216HW,2013-07-03 10:16:00,
2013-07-03 05:21:00,56.0,51.9,30.05,NNE,23,0.0,0.0,86,0.00,,,0.00,WUHU216HW,2013-07-03 10:21:00,
2013-07-03 05:26:00,55.8,51.7,30.05,NNE,23,0.0,0.0,86,0.00,,,0.00,WUHU216HW,2013-07-03 10:26:00,
2013-07-03 05:31:00,55.8,51.7,30.05,NNE,23,0.0,0.0,86,0.00,,,0.00,WUHU216HW,2013-07-03 10:31:00,
2013-07-03 05:36:00,55.6,51.5,30.05,NNE,23,0.0,0.0,86,0.00,,,0.00,WUHU216HW,2013-07-03 10:36:00,
2013-07-03 05:41:00,55.6,51.5,30.05,NNE,23,0.0,0.0,86,0.00,,,0.00,WUHU216HW,2013-07-03 10:41:00,
2013-07-03 05:46:00,55.6,51.5,30.06,NNE,23,0.0,0.0,86,0.00,,,0.00,WUHU216HW,2013-07-03 10:46:00,
2013-07-03 05:49:00,55.4,51.3,30.06,NNE,23,0.0,0.0,86,0.00,,,0.00,WUHU216HW,2013-07-03 10:49:00,
2013-07-03 05:54:00,55.6,51.5,30.06,NNE,23,0.0,0.0,86,0.00,,,0.00,WUHU216HW,2013-07-03 10:54:00,
2013-07-03 05:57:00,55.6,51.5,30.06,NNE,23,0.0,0.0,86,0.00,,,0.00,WUHU216HW,2013-07-03 10:57:00,
2013-07-03 06:02:00,56.2,52.3,30.06,North,0,0.0,0.2,87,0.00,,,0.00,WUHU216HW,2013-07-03 11:02:00,
2013-07-03 06:07:00,56.3,52.5,30.06,North,0,0.0,0.2,87,0.00,,,0.00,WUHU216HW,2013-07-03 11:07:00,
2013-07-03 06:08:00,56.3,52.5,30.06,NNE,23,0.0,0.2,87,0.00,,,0.00,WUHU216HW,2013-07-03 11:08:00,
2013-07-03 06:09:00,56.3,52.5,30.06,NNE,23,0.0,0.2,87,0.00,,,0.00,WUHU216HW,2013-07-03 11:09:00,
2013-07-03 06:14:00,56.7,53.2,30.06,NNW,338,0.0,0.0,88,0.00,,,0.00,WUHU216HW,2013-07-03 11:14:00,
2013-07-03 06:19:00,56.9,53.0,30.06,NNW,338,0.0,0.0,87,0.00,,,0.00,WUHU216HW,2013-07-03 11:19:00,
2013-07-03 06:24:00,57.1,53.6,30.07,NNW,338,0.0,0.0,88,0.00,,,0.00,WUHU216HW,2013-07-03 11:24:00,
2013-07-03 06:25:00,57.1,53.6,30.06,NNW,338,0.0,0.0,88,0.00,,,0.00,WUHU216HW,2013-07-03 11:25:00,
2013-07-03 06:30:00,57.1,53.6,30.07,NNW,338,0.0,0.0,88,0.00,,,0.00,WUHU216HW,2013-07-03 11:30:00,
2013-07-03 06:35:00,57.2,53.7,30.07,NNW,338,0.0,0.0,88,0.00,,,0.00,WUHU216HW,2013-07-03 11:35:00,
2013-07-03 06:40:00,57.2,53.7,30.07,NNW,338,0.0,0.0,88,0.00,,,0.00,WUHU216HW,2013-07-03 11:40:00,
2013-07-03 06:45:00,57.6,54.1,30.07,NNW,338,0.0,0.0,88,0.00,,,0.00,WUHU216HW,2013-07-03 11:45:00,
2013-07-03 06:50:00,58.0,54.5,30.07,NNW,338,0.0,0.0,88,0.00,,,0.00,WUHU216HW,2013-07-03 11:50:00,
2013-07-03 06:55:00,58.3,55.1,30.07,West,270,0.0,0.2,89,0.00,,,0.00,WUHU216HW,2013-07-03 11:55:00,
2013-07-03 06:59:00,58.5,55.6,30.07,West,270,0.0,0.2,90,0.00,,,0.00,WUHU216HW,2013-07-03 11:59:00,
2013-07-03 07:02:00,58.5,55.6,30.07,West,270,0.4,0.7,90,0.00,,,0.00,WUHU216HW,2013-07-03 12:02:00,
2013-07-03 07:07:00,58.5,55.6,30.07,West,270,0.0,0.7,90,0.00,,,0.00,WUHU216HW,2013-07-03 12:07:00,
2013-07-03 07:12:00,58.7,55.4,30.07,South,180,0.0,0.4,89,0.00,,,0.00,WUHU216HW,2013-07-03 12:12:00,
2013-07-03 07:14:00,58.7,55.4,30.07,South,180,0.0,0.0,89,0.00,,,0.00,WUHU216HW,2013-07-03 12:14:00,
2013-07-03 07:16:00,58.9,56.0,30.07,WSW,248,0.4,0.4,90,0.00,,,0.00,WUHU216HW,2013-07-03 12:16:00,
2013-07-03 07:20:00,59.0,56.2,30.07,WSW,248,0.0,0.9,90,0.00,,,0.00,WUHU216HW,2013-07-03 12:20:00,
2013-07-03 07:25:00,59.4,56.5,30.07,WSW,248,0.0,0.9,90,0.00,,,0.00,WUHU216HW,2013-07-03 12:25:00,
2013-07-03 07:30:00,60.1,57.2,30.07,WSW,248,0.0,0.4,90,0.00,,,0.00,WUHU216HW,2013-07-03 12:30:00,
2013-07-03 07:35:00,60.7,57.8,30.07,SE,135,0.0,0.4,90,0.00,,,0.00,WUHU216HW,2013-07-03 12:35:00,
2013-07-03 07:40:00,61.2,58.3,30.07,SE,135,0.7,0.9,90,0.00,,,0.00,WUHU216HW,2013-07-03 12:40:00,
2013-07-03 07:45:00,61.6,58.7,30.07,ESE,113,0.0,0.9,90,0.00,,,0.00,WUHU216HW,2013-07-03 12:45:00,
2013-07-03 07:46:00,61.9,59.0,30.07,SE,135,0.7,0.9,90,0.00,,,0.00,WUHU216HW,2013-07-03 12:46:00,
2013-07-03 07:51:00,62.3,59.4,30.08,SW,225,0.0,1.1,90,0.00,,,0.00,WUHU216HW,2013-07-03 12:51:00,
2013-07-03 07:57:00,62.6,59.4,30.08,East,90,0.0,1.1,89,0.00,,,0.00,WUHU216HW,2013-07-03 12:57:00,
2013-07-03 08:02:00,63.2,59.9,30.08,SW,225,0.4,1.1,89,0.00,,,0.00,WUHU216HW,2013-07-03 13:02:00,
2013-07-03 08:07:00,63.7,60.1,30.08,West,270,1.1,1.3,88,0.00,,,0.00,WUHU216HW,2013-07-03 13:07:00,
2013-07-03 08:12:00,64.4,60.2,30.08,WSW,248,0.9,1.8,86,0.00,,,0.00,WUHU216HW,2013-07-03 13:12:00,
2013-07-03 08:17:00,65.0,60.7,30.08,North,0,0.0,2.0,86,0.00,,,0.00,WUHU216HW,2013-07-03 13:17:00,
2013-07-03 08:22:00,65.3,60.8,30.08,SSW,203,0.0,2.0,85,0.00,,,0.00,WUHU216HW,2013-07-03 13:22:00,
2013-07-03 08:25:00,65.5,60.6,30.08,WSW,248,1.3,2.5,84,0.00,,,0.00,WUHU216HW,2013-07-03 13:25:00,
2013-07-03 08:30:00,66.2,60.9,30.08,WSW,248,0.2,2.5,83,0.00,,,0.00,WUHU216HW,2013-07-03 13:30:00,
2013-07-03 08:35:00,66.8,61.1,30.08,West,270,0.4,1.8,82,0.00,,,0.00,WUHU216HW,2013-07-03 13:35:00,
2013-07-03 08:37:00,67.0,60.7,30.08,West,270,1.8,1.8,80,0.00,,,0.00,WUHU216HW,2013-07-03 13:37:00,
2013-07-03 08:43:00,67.9,60.9,30.08,West,270,1.8,2.5,78,0.00,,,0.00,WUHU216HW,2013-07-03 13:43:00,
2013-07-03 08:48:00,68.2,61.1,30.08,WNW,293,0.2,2.5,78,0.00,,,0.00,WUHU216HW,2013-07-03 13:48:00,
2013-07-03 08:53:00,68.8,61.3,30.08,West,270,0.2,1.8,77,0.00,,,0.00,WUHU216HW,2013-07-03 13:53:00,
2013-07-03 08:58:00,69.5,61.6,30.08,SE,135,0.4,2.0,76,0.00,,,0.00,WUHU216HW,2013-07-03 13:58:00,
2013-07-03 09:03:00,69.8,61.5,30.08,WSW,248,0.2,2.0,75,0.00,,,0.00,WUHU216HW,2013-07-03 14:03:00,
2013-07-03 09:06:00,70.0,61.3,30.08,WSW,248,1.3,2.2,74,0.00,,,0.00,WUHU216HW,2013-07-03 14:06:00,
2013-07-03 09:10:00,70.6,61.8,30.08,SE,135,0.2,2.5,74,0.00,,,0.00,WUHU216HW,2013-07-03 14:10:00,
2013-07-03 09:15:00,71.3,61.7,30.08,West,270,1.1,2.5,72,0.00,,,0.00,WUHU216HW,2013-07-03 14:15:00,
2013-07-03 09:17:00,71.6,61.7,30.08,WSW,248,0.7,2.5,71,0.00,,,0.00,WUHU216HW,2013-07-03 14:17:00,
2013-07-03 09:22:00,72.7,62.8,30.08,ESE,113,1.6,2.5,71,0.00,,,0.00,WUHU216HW,2013-07-03 14:22:00,
2013-07-03 09:27:00,74.9,64.9,30.08,SE,135,0.0,2.5,71,0.00,,,0.00,WUHU216HW,2013-07-03 14:27:00,
2013-07-03 09:30:00,75.6,63.0,30.08,WSW,248,1.1,1.8,65,0.00,,,0.00,WUHU216HW,2013-07-03 14:30:00,
2013-07-03 09:35:00,76.7,63.5,30.07,North,0,0.7,1.8,64,0.00,,,0.00,WUHU216HW,2013-07-03 14:35:00,
2013-07-03 09:38:00,77.2,63.6,30.07,WSW,248,1.3,1.8,63,0.00,,,0.00,WUHU216HW,2013-07-03 14:38:00,
2013-07-03 09:41:00,77.8,65.1,30.07,ESE,113,0.2,1.8,65,0.00,,,0.00,WUHU216HW,2013-07-03 14:41:00,
2013-07-03 09:46:00,79.2,65.5,30.07,WSW,248,0.4,2.5,63,0.00,,,0.00,WUHU216HW,2013-07-03 14:46:00,
2013-07-03 09:51:00,80.6,66.0,30.07,SSW,203,1.1,2.5,61,0.00,,,0.00,WUHU216HW,2013-07-03 14:51:00,
2013-07-03 09:56:00,80.8,64.1,30.08,SE,135,1.1,1.6,57,0.00,,,0.00,WUHU216HW,2013-07-03 14:56:00,
2013-07-03 09:58:00,80.8,63.1,30.07,West,270,0.9,1.6,55,0.00,,,0.00,WUHU216HW,2013-07-03 14:58:00,
2013-07-03 10:03:00,80.5,63.3,30.07,WSW,248,0.4,1.6,56,0.00,,,0.00,WUHU216HW,2013-07-03 15:03:00,
2013-07-03 10:08:00,81.5,64.3,30.07,SW,225,0.0,1.3,56,0.00,,,0.00,WUHU216HW,2013-07-03 15:08:00,
2013-07-03 10:13:00,81.7,60.7,30.07,WSW,248,1.1,2.5,49,0.00,,,0.00,WUHU216HW,2013-07-03 15:13:00,
2013-07-03 10:15:00,81.4,61.5,30.07,WSW,248,1.3,2.5,51,0.00,,,0.00,WUHU216HW,2013-07-03 15:15:00,
2013-07-03 10:20:00,81.7,62.3,30.06,South,180,0.4,2.5,52,0.00,,,0.00,WUHU216HW,2013-07-03 15:20:00,
2013-07-03 10:25:00,82.3,61.1,30.06,SSW,203,0.4,2.5,49,0.00,,,0.00,WUHU216HW,2013-07-03 15:25:00,
2013-07-03 10:28:00,82.3,61.1,30.06,North,0,0.4,2.5,49,0.00,,,0.00,WUHU216HW,2013-07-03 15:28:00,
2013-07-03 10:33:00,83.9,62.1,30.06,WSW,248,1.1,2.2,48,0.00,,,0.00,WUHU216HW,2013-07-03 15:33:00,
2013-07-03 10:38:00,84.2,61.8,30.06,ESE,113,1.3,2.9,47,0.00,,,0.00,WUHU216HW,2013-07-03 15:38:00,
2013-07-03 10:40:00,84.2,63.1,30.06,ESE,113,1.6,2.9,49,0.00,,,0.00,WUHU216HW,2013-07-03 15:40:00,
2013-07-03 10:45:00,84.8,64.2,30.06,ENE,68,1.6,2.9,50,0.00,,,0.00,WUHU216HW,2013-07-03 15:45:00,
2013-07-03 10:50:00,85.7,64.4,30.06,SSE,158,1.6,2.0,49,0.00,,,0.00,WUHU216HW,2013-07-03 15:50:00,
2013-07-03 10:52:00,86.4,65.7,30.06,SSW,203,0.0,1.8,50,0.00,,,0.00,WUHU216HW,2013-07-03 15:52:00,
2013-07-03 10:53:00,86.8,66.0,30.06,ENE,68,1.1,1.8,50,0.00,,,0.00,WUHU216HW,2013-07-03 15:53:00,
2013-07-03 10:58:00,87.5,64.7,30.06,SW,225,0.7,2.5,47,0.00,,,0.00,WUHU216HW,2013-07-03 15:58:00,
2013-07-03 11:03:00,88.2,64.1,30.06,SSE,158,0.2,2.5,45,0.00,,,0.00,WUHU216HW,2013-07-03 16:03:00,
2013-07-03 11:09:00,88.6,63.8,30.06,ESE,113,0.2,2.0,44,0.00,,,0.00,WUHU216HW,2013-07-03 16:09:00,
2013-07-03 11:14:00,88.6,63.2,30.05,ESE,113,1.1,2.0,43,0.00,,,0.00,WUHU216HW,2013-07-03 16:14:00,
2013-07-03 11:19:00,88.2,62.8,30.05,ESE,113,0.2,2.2,43,0.00,,,0.00,WUHU216HW,2013-07-03 16:19:00,
2013-07-03 11:24:00,88.9,62.8,30.05,NE,45,0.4,2.2,42,0.00,,,0.00,WUHU216HW,2013-07-03 16:24:00,
2013-07-03 11:29:00,89.5,62.7,30.05,SE,135,0.4,2.0,41,0.00,,,0.00,WUHU216HW,2013-07-03 16:29:00,
2013-07-03 11:35:00,88.6,61.2,30.05,NE,45,0.9,2.2,40,0.00,,,0.00,WUHU216HW,2013-07-03 16:35:00,
2013-07-03 11:40:00,88.9,61.6,30.05,East,90,1.1,2.0,40,0.00,,,0.00,WUHU216HW,2013-07-03 16:40:00,
2013-07-03 11:45:00,89.3,60.2,30.05,SE,135,0.7,2.5,38,0.00,,,0.00,WUHU216HW,2013-07-03 16:45:00,
2013-07-03 11:50:00,89.5,61.2,30.05,North,0,0.4,2.5,39,0.00,,,0.00,WUHU216HW,2013-07-03 16:50:00,
2013-07-03 11:55:00,89.6,60.5,30.05,SE,135,0.7,1.8,38,0.00,,,0.00,WUHU216HW,2013-07-03 16:55:00,
2013-07-03 12:00:00,90.4,59.6,30.05,SE,135,1.1,1.3,36,0.00,,,0.00,WUHU216HW,2013-07-03 17:00:00,
2013-07-03 12:05:00,90.2,57.9,30.05,SE,135,1.6,2.5,34,0.00,,,0.00,WUHU216HW,2013-07-03 17:05:00,
2013-07-03 12:10:00,88.9,58.3,30.05,ENE,68,1.6,2.5,36,0.00,,,0.00,WUHU216HW,2013-07-03 17:10:00,
2013-07-03 12:15:00,89.1,60.0,30.05,SSE,158,0.2,2.5,38,0.00,,,0.00,WUHU216HW,2013-07-03 17:15:00,
2013-07-03 12:20:00,88.7,58.1,30.05,NNW,338,0.4,2.5,36,0.00,,,0.00,WUHU216HW,2013-07-03 17:20:00,
2013-07-03 12:26:00,89.1,60.0,30.04,NE,45,0.9,2.9,38,0.00,,,0.00,WUHU216HW,2013-07-03 17:26:00,
2013-07-03 12:31:00,89.5,58.0,30.04,SE,135,0.4,2.9,35,0.00,,,0.00,WUHU216HW,2013-07-03 17:31:00,
2013-07-03 12:36:00,89.6,59.0,30.04,NE,45,0.4,2.2,36,0.00,,,0.00,WUHU216HW,2013-07-03 17:36:00,
2013-07-03 12:41:00,90.5,61.3,30.04,SE,135,0.4,2.2,38,0.00,,,0.00,WUHU216HW,2013-07-03 17:41:00,
2013-07-03 12:46:00,91.4,60.6,30.04,South,180,0.4,2.0,36,0.00,,,0.00,WUHU216HW,2013-07-03 17:46:00,
2013-07-03 12:51:00,91.4,59.0,30.04,NNW,338,0.4,2.0,34,0.00,,,0.00,WUHU216HW,2013-07-03 17:51:00,
2013-07-03 12:56:00,91.4,59.8,30.04,East,90,1.1,1.6,35,0.00,,,0.00,WUHU216HW,2013-07-03 17:56:00,
2013-07-03 13:02:00,92.2,60.4,30.04,West,270,0.7,1.6,35,0.00,,,0.00,WUHU216HW,2013-07-03 18:02:00,
2013-07-03 13:07:00,91.8,59.3,30.03,SE,135,0.9,2.9,34,0.00,,,0.00,WUHU216HW,2013-07-03 18:07:00,
2013-07-03 13:12:00,91.4,59.8,30.04,SSW,203,2.7,2.9,35,0.00,,,0.00,WUHU216HW,2013-07-03 18:12:00,
2013-07-03 13:17:00,91.1,58.7,30.03,SE,135,1.1,3.1,34,0.00,,,0.00,WUHU216HW,2013-07-03 18:17:00,
2013-07-03 13:23:00,90.4,58.0,30.03,SE,135,0.4,4.5,34,0.00,,,0.00,WUHU216HW,2013-07-03 18:23:00,
2013-07-03 13:28:00,91.4,59.0,30.03,SSE,158,1.1,4.5,34,0.00,,,0.00,WUHU216HW,2013-07-03 18:28:00,
2013-07-03 13:33:00,92.2,59.6,30.03,SE,135,0.9,2.2,34,0.00,,,0.00,WUHU216HW,2013-07-03 18:33:00,
2013-07-03 13:38:00,92.3,59.0,30.03,SE,135,4.0,4.0,33,0.00,,,0.00,WUHU216HW,2013-07-03 18:38:00,
2013-07-03 13:43:00,91.1,57.1,30.03,South,180,1.3,4.3,32,0.00,,,0.00,WUHU216HW,2013-07-03 18:43:00,
2013-07-03 13:48:00,90.4,55.6,30.03,NE,45,0.9,4.3,31,0.00,,,0.00,WUHU216HW,2013-07-03 18:48:00,
2013-07-03 13:54:00,89.5,54.0,30.03,NNW,338,0.4,4.5,30,0.00,,,0.00,WUHU216HW,2013-07-03 18:54:00,
2013-07-03 13:59:00,89.3,57.1,30.03,SE,135,0.7,4.5,34,0.00,,,0.00,WUHU216HW,2013-07-03 18:59:00,
2013-07-03 14:04:00,89.5,56.4,30.03,ENE,68,1.1,2.5,33,0.00,,,0.00,WUHU216HW,2013-07-03 19:04:00,
2013-07-03 14:09:00,89.6,57.3,30.03,ESE,113,1.8,2.7,34,0.00,,,0.00,WUHU216HW,2013-07-03 19:09:00,
2013-07-03 14:14:00,90.0,56.9,30.03,ENE,68,0.9,3.6,33,0.00,,,0.00,WUHU216HW,2013-07-03 19:14:00,
2013-07-03 14:19:00,90.0,56.1,30.03,SSE,158,1.8,3.6,32,0.00,,,0.00,WUHU216HW,2013-07-03 19:19:00,
2013-07-03 14:24:00,89.8,55.9,30.02,SSE,158,2.7,2.9,32,0.00,,,0.00,WUHU216HW,2013-07-03 19:24:00,
2013-07-03 14:29:00,89.5,56.4,30.02,West,270,0.4,3.6,33,0.00,,,0.00,WUHU216HW,2013-07-03 19:29:00,
2013-07-03 14:34:00,89.6,56.5,30.02,SE,135,0.7,3.6,33,0.00,,,0.00,WUHU216HW,2013-07-03 19:34:00,
2013-07-03 14:39:00,91.1,57.1,30.02,East,90,0.9,3.4,32,0.00,,,0.00,WUHU216HW,2013-07-03 19:39:00,
2013-07-03 14:44:00,90.7,56.0,30.02,South,180,1.8,3.4,31,0.00,,,0.00,WUHU216HW,2013-07-03 19:44:00,
2013-07-03 14:49:00,90.0,54.6,30.02,WNW,293,1.1,3.4,30,0.00,,,0.00,WUHU216HW,2013-07-03 19:49:00,
2013-07-03 14:55:00,90.4,56.4,30.01,WSW,248,1.3,3.4,32,0.00,,,0.00,WUHU216HW,2013-07-03 19:55:00,
2013-07-03 15:00:00,90.9,56.9,30.01,SSW,203,1.8,5.4,32,0.00,,,0.00,WUHU216HW,2013-07-03 20:00:00,
2013-07-03 15:05:00,91.3,56.4,30.01,NE,45,1.1,5.4,31,0.00,,,0.00,WUHU216HW,2013-07-03 20:05:00,
2013-07-03 15:10:00,91.6,56.7,30.01,WSW,248,0.9,2.9,31,0.00,,,0.00,WUHU216HW,2013-07-03 20:10:00,
2013-07-03 15:15:00,90.7,57.5,30.01,South,180,1.1,4.0,33,0.00,,,0.00,WUHU216HW,2013-07-03 20:15:00,
2013-07-03 15:20:00,90.4,55.6,30.01,ENE,68,1.8,4.3,31,0.00,,,0.00,WUHU216HW,2013-07-03 20:20:00,
2013-07-03 15:25:00,89.6,55.8,30.01,NE,45,2.0,4.3,32,0.00,,,0.00,WUHU216HW,2013-07-03 20:25:00,
2013-07-03 15:30:00,90.4,54.8,30.01,West,270,1.8,4.0,30,0.00,,,0.00,WUHU216HW,2013-07-03 20:30:00,
2013-07-03 15:35:00,91.8,57.7,30.01,East,90,0.0,2.9,32,0.00,,,0.00,WUHU216HW,2013-07-03 20:35:00,
2013-07-03 15:40:00,91.4,56.6,30.00,NW,315,1.1,4.0,31,0.00,,,0.00,WUHU216HW,2013-07-03 20:40:00,
2013-07-03 15:45:00,91.3,55.6,30.00,West,270,1.1,4.0,30,0.00,,,0.00,WUHU216HW,2013-07-03 20:45:00,
2013-07-03 15:50:00,91.1,55.4,30.00,SE,135,1.6,3.6,30,0.00,,,0.00,WUHU216HW,2013-07-03 20:50:00,
2013-07-03 15:56:00,91.4,56.6,30.00,SSW,203,0.2,4.5,31,0.00,,,0.00,WUHU216HW,2013-07-03 20:56:00,
2013-07-03 16:01:00,92.2,56.3,30.00,ESE,113,1.8,4.5,30,0.00,,,0.00,WUHU216HW,2013-07-03 21:01:00,
2013-07-03 16:06:00,91.1,55.4,30.00,ESE,113,1.8,4.9,30,0.00,,,0.00,WUHU216HW,2013-07-03 21:06:00,
2013-07-03 16:11:00,90.5,55.8,30.00,NNW,338,0.9,4.9,31,0.00,,,0.00,WUHU216HW,2013-07-03 21:11:00,
2013-07-03 16:16:00,91.1,56.3,30.00,ENE,68,0.2,2.7,31,0.00,,,0.00,WUHU216HW,2013-07-03 21:16:00,
2013-07-03 16:22:00,90.9,55.4,30.00,SE,135,0.4,3.6,30,0.00,,,0.00,WUHU216HW,2013-07-03 21:22:00,
2013-07-03 16:27:00,90.2,54.6,30.00,West,270,2.7,3.6,30,0.00,,,0.00,WUHU216HW,2013-07-03 21:27:00,
2013-07-03 16:32:00,88.2,52.9,29.99,SE,135,1.1,4.3,30,0.00,,,0.00,WUHU216HW,2013-07-03 21:32:00,
2013-07-03 16:37:00,88.4,55.4,29.99,ENE,68,0.9,3.1,33,0.00,,,0.00,WUHU216HW,2013-07-03 21:37:00,
2013-07-03 16:43:00,89.8,55.9,29.99,ENE,68,1.8,3.4,32,0.00,,,0.00,WUHU216HW,2013-07-03 21:43:00,
2013-07-03 16:48:00,92.5,58.2,29.99,ENE,68,1.1,3.4,32,0.00,,,0.00,WUHU216HW,2013-07-03 21:48:00,
2013-07-03 16:53:00,94.5,56.2,29.99,West,270,1.8,2.7,28,0.00,,,0.00,WUHU216HW,2013-07-03 21:53:00,
2013-07-03 16:58:00,95.6,59.3,29.99,South,180,0.2,2.7,30,0.00,,,0.00,WUHU216HW,2013-07-03 21:58:00,
2013-07-03 17:03:00,97.0,57.2,29.99,SSE,158,1.6,2.0,27,0.00,,,0.00,WUHU216HW,2013-07-03 22:03:00,
2013-07-03 17:08:00,94.0,54.5,29.99,WSW,248,0.7,3.4,27,0.00,,,0.00,WUHU216HW,2013-07-03 22:08:00,
2013-07-03 17:14:00,91.8,52.8,29.99,ENE,68,1.3,3.4,27,0.00,,,0.00,WUHU216HW,2013-07-03 22:14:00,
2013-07-03 17:19:00,92.7,55.7,29.99,ENE,68,0.2,3.4,29,0.00,,,0.00,WUHU216HW,2013-07-03 22:19:00,
2013-07-03 17:24:00,92.5,55.5,29.98,SSE,158,0.4,2.7,29,0.00,,,0.00,WUHU216HW,2013-07-03 22:24:00,
2013-07-03 17:29:00,93.1,54.9,29.98,ESE,113,1.3,2.5,28,0.00,,,0.00,WUHU216HW,2013-07-03 22:29:00,
2013-07-03 17:34:00,92.5,55.5,29.98,West,270,0.4,2.9,29,0.00,,,0.00,WUHU216HW,2013-07-03 22:34:00,
2013-07-03 17:39:00,93.4,56.4,29.98,ESE,113,0.0,2.9,29,0.00,,,0.00,WUHU216HW,2013-07-03 22:39:00,
2013-07-03 17:44:00,94.0,54.5,29.98,ESE,113,0.4,2.7,27,0.00,,,0.00,WUHU216HW,2013-07-03 22:44:00,
2013-07-03 17:49:00,94.0,56.8,29.98,SSE,158,0.7,2.2,29,0.00,,,0.00,WUHU216HW,2013-07-03 22:49:00,
2013-07-03 17:54:00,94.7,55.2,29.98,ENE,68,0.4,1.8,27,0.00,,,0.00,WUHU216HW,2013-07-03 22:54:00,
2013-07-03 17:59:00,96.1,56.4,29.98,SE,135,0.9,1.8,27,0.00,,,0.00,WUHU216HW,2013-07-03 22:59:00,
2013-07-03 18:04:00,95.6,56.0,29.97,SE,135,0.4,1.1,27,0.00,,,0.00,WUHU216HW,2013-07-03 23:04:00,
2013-07-03 18:09:00,94.7,55.2,29.97,East,90,1.1,1.6,27,0.00,,,0.00,WUHU216HW,2013-07-03 23:09:00,
2013-07-03 18:14:00,92.2,55.3,29.97,East,90,0.7,2.5,29,0.00,,,0.00,WUHU216HW,2013-07-03 23:14:00,
2013-07-03 18:19:00,92.0,55.2,29.97,ESE,113,1.3,2.7,29,0.00,,,0.00,WUHU216HW,2013-07-03 23:19:00,
2013-07-03 18:25:00,93.2,56.2,29.97,ENE,68,0.4,2.7,29,0.00,,,0.00,WUHU216HW,2013-07-03 23:25:00,
2013-07-03 18:30:00,94.1,55.8,29.97,South,180,1.1,2.0,28,0.00,,,0.00,WUHU216HW,2013-07-03 23:30:00,
2013-07-03 18:35:00,95.9,56.3,29.97,West,270,0.4,2.0,27,0.00,,,0.00,WUHU216HW,2013-07-03 23:35:00,
2013-07-03 18:40:00,95.6,56.0,29.97,SSW,203,0.4,2.0,27,0.00,,,0.00,WUHU216HW,2013-07-03 23:40:00,
2013-07-03 18:45:00,97.0,56.1,29.97,SSE,158,0.7,2.0,26,0.00,,,0.00,WUHU216HW,2013-07-03 23:45:00,
2013-07-03 18:50:00,96.8,55.9,29.97,ENE,68,0.2,1.1,26,0.00,,,0.00,WUHU216HW,2013-07-03 23:50:00,
2013-07-03 18:55:00,96.3,54.4,29.97,SE,135,0.4,1.3,25,0.00,,,0.00,WUHU216HW,2013-07-03 23:55:00,
2013-07-03 19:00:00,94.7,54.1,29.97,SE,135,1.1,1.6,26,0.00,,,0.00,WUHU216HW,2013-07-04 00:00:00,
2013-07-03 19:06:00,91.6,52.7,29.97,SE,135,0.9,1.6,27,0.00,,,0.00,WUHU216HW,2013-07-04 00:06:00,
2013-07-03 19:11:00,88.6,52.1,29.97,East,90,0.0,1.1,29,0.00,,,0.00,WUHU216HW,2013-07-04 00:11:00,
2013-07-03 19:16:00,86.4,51.4,29.97,South,180,0.4,1.3,30,0.00,,,0.00,WUHU216HW,2013-07-04 00:16:00,
2013-07-03 19:21:00,85.1,51.9,29.97,ESE,113,0.0,1.3,32,0.00,,,0.00,WUHU216HW,2013-07-04 00:21:00,
2013-07-03 19:26:00,84.2,51.1,29.97,SSE,158,0.0,1.1,32,0.00,,,0.00,WUHU216HW,2013-07-04 00:26:00,
2013-07-03 19:31:00,83.5,51.2,29.97,SE,135,0.0,1.1,33,0.00,,,0.00,WUHU216HW,2013-07-04 00:31:00,
2013-07-03 19:37:00,82.8,51.4,29.96,SE,135,0.7,0.7,34,0.00,,,0.00,WUHU216HW,2013-07-04 00:37:00,
2013-07-03 19:42:00,82.4,51.0,29.96,SSE,158,0.0,0.9,34,0.00,,,0.00,WUHU216HW,2013-07-04 00:42:00,
2013-07-03 19:47:00,81.9,50.6,29.96,SSE,158,0.0,0.9,34,0.00,,,0.00,WUHU216HW,2013-07-04 00:47:00,
2013-07-03 19:52:00,81.5,51.1,29.96,SE,135,0.4,0.4,35,0.00,,,0.00,WUHU216HW,2013-07-04 00:52:00,
2013-07-03 19:57:00,81.0,50.6,29.96,ESE,113,0.0,0.4,35,0.00,,,0.00,WUHU216HW,2013-07-04 00:57:00,
2013-07-03 20:02:00,80.6,51.8,29.96,SE,135,0.2,0.4,37,0.00,,,0.00,WUHU216HW,2013-07-04 01:02:00,
2013-07-03 20:07:00,80.3,51.6,29.96,SE,135,0.0,0.4,37,0.00,,,0.00,WUHU216HW,2013-07-04 01:07:00,
2013-07-03 20:13:00,79.7,51.9,29.96,SE,135,0.2,0.4,38,0.00,,,0.00,WUHU216HW,2013-07-04 01:13:00,
2013-07-03 20:19:00,79.0,51.9,29.96,SE,135,0.4,0.4,39,0.00,,,0.00,WUHU216HW,2013-07-04 01:19:00,
2013-07-03 20:24:00,78.5,52.2,29.96,SE,135,0.0,0.7,40,0.00,,,0.00,WUHU216HW,2013-07-04 01:24:00,
2013-07-03 20:29:00,77.9,53.0,29.96,SE,135,0.0,0.2,42,0.00,,,0.00,WUHU216HW,2013-07-04 01:29:00,
2013-07-03 20:34:00,77.4,53.1,29.96,ESE,113,0.7,0.7,43,0.00,,,0.00,WUHU216HW,2013-07-04 01:34:00,
2013-07-03 20:39:00,77.0,53.4,29.96,ESE,113,0.4,0.7,44,0.00,,,0.00,WUHU216HW,2013-07-04 01:39:00,
2013-07-03 20:44:00,76.9,53.2,29.96,ESE,113,0.0,0.9,44,0.00,,,0.00,WUHU216HW,2013-07-04 01:44:00,
2013-07-03 20:49:00,76.7,53.1,29.96,ESE,113,0.9,1.1,44,0.00,,,0.00,WUHU216HW,2013-07-04 01:49:00,
2013-07-03 20:54:00,76.3,53.4,29.96,ESE,113,0.9,1.1,45,0.00,,,0.00,WUHU216HW,2013-07-04 01:54:00,
2013-07-03 20:59:00,76.0,53.0,29.96,ESE,113,0.0,0.9,45,0.00,,,0.00,WUHU216HW,2013-07-04 01:59:00,
2013-07-03 21:04:00,75.4,53.2,29.96,ESE,113,0.0,0.9,46,0.00,,,0.00,WUHU216HW,2013-07-04 02:04:00,
2013-07-03 21:09:00,74.7,53.1,29.96,ESE,113,0.0,0.0,47,0.00,,,0.00,WUHU216HW,2013-07-04 02:09:00,
2013-07-03 21:15:00,74.0,53.0,29.96,ESE,113,0.0,0.0,48,0.00,,,0.00,WUHU216HW,2013-07-04 02:15:00,
2013-07-03 21:20:00,73.1,52.8,29.96,ESE,113,0.0,0.0,49,0.00,,,0.00,WUHU216HW,2013-07-04 02:20:00,
2013-07-03 21:25:00,72.4,53.2,29.96,ESE,113,0.0,0.0,51,0.00,,,0.00,WUHU216HW,2013-07-04 02:25:00,
2013-07-03 21:30:00,71.6,53.0,29.96,ESE,113,0.0,0.0,52,0.00,,,0.00,WUHU216HW,2013-07-04 02:30:00,
2013-07-03 21:35:00,70.9,52.9,29.96,ESE,113,0.0,0.0,53,0.00,,,0.00,WUHU216HW,2013-07-04 02:35:00,
2013-07-03 21:40:00,70.2,53.3,29.96,ESE,113,0.0,0.0,55,0.00,,,0.00,WUHU216HW,2013-07-04 02:40:00,
2013-07-03 21:45:00,69.8,52.9,29.96,ESE,113,0.0,0.0,55,0.00,,,0.00,WUHU216HW,2013-07-04 02:45:00,
2013-07-03 21:50:00,69.5,53.1,29.96,ESE,113,0.0,0.0,56,0.00,,,0.00,WUHU216HW,2013-07-04 02:50:00,
2013-07-03 21:56:00,68.9,53.6,29.96,ESE,113,0.0,0.0,58,0.00,,,0.00,WUHU216HW,2013-07-04 02:56:00,
2013-07-03 22:01:00,68.4,53.6,29.96,ESE,113,0.0,0.0,59,0.00,,,0.00,WUHU216HW,2013-07-04 03:01:00,
2013-07-03 22:06:00,68.0,53.6,29.96,East,90,0.0,0.0,60,0.00,,,0.00,WUHU216HW,2013-07-04 03:06:00,
2013-07-03 22:11:00,67.7,53.7,29.96,East,90,0.0,0.0,61,0.00,,,0.00,WUHU216HW,2013-07-04 03:11:00,
2013-07-03 22:17:00,67.1,53.6,29.97,East,90,0.0,0.0,62,0.00,,,0.00,WUHU216HW,2013-07-04 03:17:00,
2013-07-03 22:22:00,66.6,53.7,29.97,East,90,0.0,0.0,63,0.00,,,0.00,WUHU216HW,2013-07-04 03:22:00,
2013-07-03 22:27:00,66.2,53.6,29.97,East,90,0.0,0.0,64,0.00,,,0.00,WUHU216HW,2013-07-04 03:27:00,
2013-07-03 22:32:00,65.9,53.4,29.97,East,90,0.0,0.0,64,0.00,,,0.00,WUHU216HW,2013-07-04 03:32:00,
2013-07-03 22:37:00,65.7,53.6,29.97,East,90,0.0,0.0,65,0.00,,,0.00,WUHU216HW,2013-07-04 03:37:00,
2013-07-03 22:42:00,65.3,53.3,29.97,East,90,0.0,0.0,65,0.00,,,0.00,WUHU216HW,2013-07-04 03:42:00,
2013-07-03 22:47:00,65.3,53.6,29.97,East,90,0.0,0.0,66,0.00,,,0.00,WUHU216HW,2013-07-04 03:47:00,
2013-07-03 22:53:00,65.5,54.3,29.97,ESE,113,0.0,0.4,67,0.00,,,0.00,WUHU216HW,2013-07-04 03:53:00,
2013-07-03 22:58:00,66.4,54.7,29.97,ENE,68,0.2,1.6,66,0.00,,,0.00,WUHU216HW,2013-07-04 03:58:00,
2013-07-03 23:01:00,67.0,54.8,29.97,East,90,0.4,1.6,65,0.00,,,0.00,WUHU216HW,2013-07-04 04:01:00,
2013-07-03 23:06:00,67.3,54.7,29.97,East,90,0.2,1.6,64,0.00,,,0.00,WUHU216HW,2013-07-04 04:06:00,
2013-07-03 23:11:00,67.5,54.5,29.97,ESE,113,0.7,1.1,63,0.00,,,0.00,WUHU216HW,2013-07-04 04:11:00,
2013-07-03 23:16:00,67.7,55.0,29.97,ESE,113,0.9,1.1,64,0.00,,,0.00,WUHU216HW,2013-07-04 04:16:00,
2013-07-03 23:21:00,67.7,54.6,29.97,East,90,0.0,1.3,63,0.00,,,0.00,WUHU216HW,2013-07-04 04:21:00,
2013-07-03 23:26:00,67.7,55.0,29.97,SE,135,0.4,2.5,64,0.00,,,0.00,WUHU216HW,2013-07-04 04:26:00,
2013-07-03 23:31:00,67.7,55.4,29.97,ENE,68,0.7,2.5,65,0.00,,,0.00,WUHU216HW,2013-07-04 04:31:00,
2013-07-03 23:36:00,67.9,55.6,29.97,SE,135,0.7,1.6,65,0.00,,,0.00,WUHU216HW,2013-07-04 04:36:00,
2013-07-03 23:41:00,67.7,55.0,29.97,East,90,0.0,1.3,64,0.00,,,0.00,WUHU216HW,2013-07-04 04:41:00,
2013-07-03 23:46:00,67.5,55.3,29.97,ESE,113,0.7,1.3,65,0.00,,,0.00,WUHU216HW,2013-07-04 04:46:00,
2013-07-03 23:51:00,67.3,55.1,29.97,SE,135,0.0,2.0,65,0.00,,,0.00,WUHU216HW,2013-07-04 04:51:00,
2013-07-03 23:56:00,67.3,55.1,29.97,East,90,1.3,2.0,65,0.00,,,0.00,WUHU216HW,2013-07-04 04:56:00,